createdAt,value
2018-03-08T08:44:49.701Z,2620
2018-03-08T08:45:51.566Z,2604
2018-03-08T08:46:53.440Z,2784
2018-03-08T08:47:55.311Z,3080
2018-03-08T08:48:57.103Z,3268
2018-03-08T08:49:59.225Z,3288
2018-03-08T08:51:01.035Z,3220
2018-03-08T08:52:02.896Z,3156
2018-03-08T08:53:04.781Z,3164
2018-03-08T08:54:18.927Z,3452
2018-03-08T08:55:20.882Z,3732
2018-03-08T08:56:22.772Z,4172
2018-03-08T08:57:24.651Z,4120
2018-03-08T08:58:26.453Z,4128
2018-03-08T08:59:28.266Z,4236
2018-03-08T09:00:30.125Z,4364
2018-03-08T09:01:31.991Z,4484
2018-03-08T09:02:33.877Z,4492
2018-03-08T09:03:48.028Z,4140
2018-03-08T09:04:49.897Z,4492
2018-03-08T09:05:51.773Z,4520
2018-03-08T09:06:53.655Z,4252
2018-03-08T09:07:55.453Z,4144
2018-03-08T09:08:57.249Z,4104
2018-03-08T09:09:59.115Z,3704
2018-03-08T09:11:01.001Z,3324
2018-03-08T09:12:02.861Z,3332
2018-03-08T09:13:17.014Z,3604
2018-03-08T09:14:18.876Z,3944
2018-03-08T09:15:20.744Z,4044
2018-03-08T09:16:22.628Z,4420
2018-03-08T09:17:24.446Z,4288
2018-03-08T09:18:26.244Z,4112
2018-03-08T09:19:28.132Z,4812
2018-03-08T09:20:30.012Z,5220
2018-03-08T09:21:31.877Z,5676
2018-03-08T09:22:46.055Z,6368
2018-03-08T09:23:47.916Z,6656
2018-03-08T09:24:49.782Z,6396
2018-03-08T09:25:51.644Z,6360
2018-03-08T09:26:53.465Z,6632
2018-03-08T09:27:55.266Z,7340
2018-03-08T09:28:57.131Z,7680
2018-03-08T09:29:58.993Z,7892
2018-03-08T09:31:00.854Z,7100
2018-03-08T09:32:14.991Z,6388
2018-03-08T09:33:16.857Z,6224
2018-03-08T09:34:18.726Z,6444
2018-03-08T09:35:20.601Z,6648
2018-03-08T09:36:22.446Z,7240
2018-03-08T09:37:24.235Z,8312
2018-03-08T09:38:26.035Z,8864
2018-03-08T09:39:27.843Z,8804
2018-03-08T09:40:29.699Z,9736
2018-03-08T09:41:43.854Z,9852
2018-03-08T09:42:45.719Z,9128
2018-03-08T09:43:47.616Z,8756
2018-03-08T09:44:49.486Z,8120
2018-03-08T09:45:51.308Z,7636
2018-03-08T09:46:53.133Z,7688
2018-03-08T09:47:55.018Z,8692
2018-03-08T09:48:56.904Z,9432
2018-03-08T09:49:58.797Z,10416
2018-03-08T09:51:12.952Z,11088
2018-03-08T09:52:14.837Z,10528
2018-03-08T09:53:16.721Z,10868
2018-03-08T09:54:18.587Z,12004
2018-03-08T09:55:20.393Z,12172
2018-03-08T09:56:22.196Z,11952
2018-03-08T09:57:24.061Z,11904
2018-03-08T09:58:25.932Z,11488
2018-03-08T09:59:27.795Z,10856
2018-03-08T10:00:41.939Z,9672
2018-03-08T10:01:43.805Z,8528
2018-03-08T10:02:45.676Z,7772
2018-03-08T10:03:47.567Z,7928
2018-03-08T10:04:49.387Z,8032
2018-03-08T10:05:51.191Z,8564
2018-03-08T10:06:53.057Z,8584
2018-03-08T10:07:54.939Z,7848
2018-03-08T10:08:56.811Z,7484
2018-03-08T10:10:11.028Z,7336
2018-03-08T10:11:13.280Z,7512
2018-03-08T10:12:15.520Z,7652
2018-03-08T10:13:17.570Z,8828
2018-03-08T10:14:19.787Z,10116
2018-03-08T10:15:21.600Z,11608
2018-03-08T10:16:23.516Z,11716
2018-03-08T10:17:25.416Z,11544
2018-03-08T10:18:27.557Z,12016
2018-03-08T10:19:41.763Z,11808
2018-03-08T10:20:43.930Z,10216
2018-03-08T10:21:46.038Z,8932
2018-03-08T10:22:48.300Z,8292
2018-03-08T10:23:50.108Z,8248
2018-03-08T10:24:52.363Z,8908
2018-03-08T10:25:54.380Z,9476
2018-03-08T10:26:56.297Z,10220
2018-03-08T10:27:58.375Z,10472
2018-03-08T10:29:12.709Z,9964
2018-03-08T10:30:14.869Z,9988
2018-03-08T10:31:17.026Z,10208
2018-03-08T10:32:19.316Z,10356
2018-03-08T10:33:21.497Z,10496
2018-03-08T10:34:23.508Z,10464
2018-03-08T10:35:25.795Z,10788
2018-03-08T10:36:27.674Z,11360
2018-03-08T10:37:29.995Z,11504
2018-03-08T10:38:44.487Z,11452
2018-03-08T10:39:46.359Z,11504
2018-03-08T10:40:48.533Z,11396
2018-03-08T10:41:50.735Z,11252
2018-03-08T10:42:52.726Z,11048
2018-03-08T10:43:54.532Z,10532
2018-03-08T10:44:56.893Z,9772
2018-03-08T10:45:58.778Z,8892
2018-03-08T10:47:00.595Z,8124
2018-03-08T10:48:14.732Z,7844
2018-03-08T10:49:16.600Z,8380
2018-03-08T10:50:18.453Z,8252
2018-03-08T10:51:20.326Z,8048
2018-03-08T10:52:22.131Z,7908
2018-03-08T10:53:23.956Z,8040
2018-03-08T10:54:25.823Z,9020
2018-03-08T10:55:27.714Z,9848
2018-03-08T10:56:29.581Z,9716
2018-03-08T10:57:43.759Z,8976
2018-03-08T10:58:45.647Z,9960
2018-03-08T10:59:47.530Z,10992
2018-03-08T11:00:49.700Z,11244
2018-03-08T11:01:51.216Z,10968
2018-03-08T11:02:53.040Z,10588
2018-03-08T11:03:54.910Z,10408
2018-03-08T11:04:56.798Z,10312
2018-03-08T11:05:58.682Z,9992
2018-03-08T11:07:12.841Z,9696
2018-03-08T11:08:14.724Z,9276
2018-03-08T11:09:16.589Z,8768
2018-03-08T11:10:18.464Z,8268
2018-03-08T11:11:20.288Z,7660
2018-03-08T11:12:22.089Z,7536
2018-03-08T11:13:23.976Z,7792
2018-03-08T11:14:25.841Z,8224
2018-03-08T11:15:27.705Z,8812
2018-03-08T11:16:41.845Z,9044
2018-03-08T11:17:43.741Z,9144
2018-03-08T11:18:45.656Z,9732
2018-03-08T11:19:47.528Z,9968
2018-03-08T11:20:49.346Z,9868
2018-03-08T11:21:51.152Z,9892
2018-03-08T11:22:53.040Z,9672
2018-03-08T11:23:54.907Z,8940
2018-03-08T11:24:56.799Z,7440
2018-03-08T11:26:11.005Z,6096
2018-03-08T11:27:12.890Z,5480
2018-03-08T11:28:14.763Z,5220
2018-03-08T11:29:16.628Z,5192
2018-03-08T11:30:18.412Z,5388
2018-03-08T11:31:20.254Z,5692
2018-03-08T11:32:22.136Z,6460
2018-03-08T11:33:24.020Z,7384
2018-03-08T11:34:25.910Z,7852
2018-03-08T11:35:40.076Z,8148
2018-03-08T11:36:41.948Z,8076
2018-03-08T11:37:43.835Z,7388
2018-03-08T11:38:45.723Z,6944
2018-03-08T11:39:47.536Z,6928
2018-03-08T11:40:49.356Z,7288
2018-03-08T11:41:51.216Z,7784
2018-03-08T11:42:53.084Z,7488
2018-03-08T11:43:54.952Z,7140
2018-03-08T11:45:09.108Z,7496
2018-03-08T11:46:10.983Z,8096
2018-03-08T11:47:12.860Z,8492
2018-03-08T11:48:14.727Z,8856
2018-03-08T11:49:16.536Z,9076
2018-03-08T11:50:18.341Z,8852
2018-03-08T11:51:20.209Z,7608
2018-03-08T11:52:22.071Z,6408
2018-03-08T11:53:23.961Z,5472
2018-03-08T11:54:38.168Z,4632
2018-03-08T11:55:39.984Z,4224
2018-03-08T11:56:41.872Z,4096
2018-03-08T11:57:43.759Z,3884
2018-03-08T11:58:45.560Z,3844
2018-03-08T11:59:47.365Z,3972
2018-03-08T12:00:49.255Z,4084
2018-03-08T12:01:51.136Z,4264
2018-03-08T12:02:53.071Z,4224
2018-03-08T12:04:07.174Z,4180
2018-03-08T12:05:09.035Z,4192
2018-03-08T12:06:10.903Z,4208
2018-03-08T12:07:12.785Z,4144
2018-03-08T12:08:14.595Z,3932
2018-03-08T12:09:16.420Z,3852
2018-03-08T12:10:18.307Z,4024
2018-03-08T12:11:20.191Z,3920
2018-03-08T12:12:22.059Z,4356
2018-03-08T12:13:36.196Z,4788
2018-03-08T12:14:38.085Z,5000
2018-03-08T12:15:39.950Z,5140
2018-03-08T12:16:41.838Z,5544
2018-03-08T12:17:43.664Z,6004
2018-03-08T12:18:45.483Z,6544
2018-03-08T12:19:47.350Z,7288
2018-03-08T12:20:49.313Z,8980
2018-03-08T12:21:51.309Z,10496
2018-03-08T12:23:05.563Z,11088
2018-03-08T12:24:07.558Z,10868
2018-03-08T12:25:09.727Z,10000
2018-03-08T12:26:11.677Z,8284
2018-03-08T12:27:13.599Z,6920
2018-03-08T12:28:15.484Z,6000
2018-03-08T12:29:17.478Z,5216
2018-03-08T12:30:19.483Z,4740
2018-03-08T12:31:21.387Z,4528
2018-03-08T12:32:35.550Z,4332
2018-03-08T12:33:37.421Z,4184
2018-03-08T12:34:39.287Z,4116
2018-03-08T12:35:41.175Z,4152
2018-03-08T12:36:43.001Z,4024
2018-03-08T12:37:44.804Z,3936
2018-03-08T12:38:46.666Z,3948
2018-03-08T12:39:48.532Z,3908
2018-03-08T12:40:50.416Z,3860
2018-03-08T12:42:04.552Z,3948
2018-03-08T12:43:06.412Z,3856
2018-03-08T12:44:08.291Z,3820
2018-03-08T12:45:10.156Z,3828
2018-03-08T12:46:11.975Z,3836
2018-03-08T12:47:13.779Z,3684
2018-03-08T12:48:15.663Z,3824
2018-03-08T12:49:17.518Z,3824
2018-03-08T12:50:19.376Z,3872
2018-03-08T12:51:33.546Z,4060
2018-03-08T12:52:35.423Z,4144
2018-03-08T12:53:37.288Z,4132
2018-03-08T12:54:39.172Z,3840
2018-03-08T12:55:40.994Z,3580
2018-03-08T12:56:42.792Z,3556
2018-03-08T12:57:44.656Z,3588
2018-03-08T12:58:46.533Z,3572
2018-03-08T12:59:48.403Z,3508
2018-03-08T13:01:02.553Z,3696
2018-03-08T13:02:04.464Z,3708
2018-03-08T13:03:06.273Z,3684
2018-03-08T13:04:08.177Z,3940
2018-03-08T13:05:09.990Z,4044
2018-03-08T13:06:11.799Z,3720
2018-03-08T13:07:13.664Z,3704
2018-03-08T13:08:15.545Z,3660
2018-03-08T13:09:17.424Z,3700
2018-03-08T13:10:31.586Z,4112
2018-03-08T13:11:33.467Z,3988
2018-03-08T13:12:35.307Z,3632
2018-03-08T13:13:37.190Z,3484
2018-03-08T13:14:39.012Z,3440
2018-03-08T13:15:40.808Z,3488
2018-03-08T13:16:42.675Z,3736
2018-03-08T13:17:44.553Z,3780
2018-03-08T13:18:46.420Z,4120
2018-03-08T13:20:00.577Z,5148
2018-03-08T13:21:02.457Z,5584
2018-03-08T13:22:04.321Z,5172
2018-03-08T13:23:06.199Z,4776
2018-03-08T13:24:08.005Z,4340
2018-03-08T13:25:09.826Z,4156
2018-03-08T13:26:11.682Z,4048
2018-03-08T13:27:13.545Z,4048
2018-03-08T13:28:15.415Z,3956
2018-03-08T13:29:29.570Z,4140
2018-03-08T13:30:31.454Z,4520
2018-03-08T13:31:33.314Z,4800
2018-03-08T13:32:35.189Z,4796
2018-03-08T13:33:36.995Z,4536
2018-03-08T13:34:38.827Z,4448
2018-03-08T13:35:40.677Z,4148
2018-03-08T13:36:42.535Z,3952
2018-03-08T13:37:44.406Z,3996
2018-03-08T13:38:58.537Z,3920
2018-03-08T13:40:00.416Z,3896
2018-03-08T13:41:02.279Z,3912
2018-03-08T13:42:04.166Z,3856
2018-03-08T13:43:05.984Z,3672
2018-03-08T13:44:07.779Z,3596
2018-03-08T13:45:09.643Z,3608
2018-03-08T13:46:11.500Z,3636
2018-03-08T13:47:13.368Z,3692
2018-03-08T13:48:27.499Z,3784
2018-03-08T13:49:29.364Z,3800
2018-03-08T13:50:31.244Z,3852
2018-03-08T13:51:33.104Z,3932
2018-03-08T13:52:34.913Z,4180
2018-03-08T13:53:36.714Z,4516
2018-03-08T13:54:38.578Z,4480
2018-03-08T13:55:40.437Z,4224
2018-03-08T13:56:42.320Z,3928
2018-03-08T13:57:56.480Z,3648
2018-03-08T13:58:58.337Z,3464
2018-03-08T14:00:00.219Z,3376
2018-03-08T14:01:02.106Z,3576
2018-03-08T14:02:03.929Z,3904
2018-03-08T14:03:05.724Z,3868
2018-03-08T14:04:07.584Z,3820
2018-03-08T14:05:09.460Z,3812
2018-03-08T14:06:11.329Z,3568
2018-03-08T14:07:25.454Z,3296
2018-03-08T14:08:27.319Z,3172
2018-03-08T14:09:29.183Z,3104
2018-03-08T14:10:31.063Z,3080
2018-03-08T14:11:32.865Z,3140
2018-03-08T14:12:34.655Z,3228
2018-03-08T14:13:36.522Z,3308
2018-03-08T14:14:38.396Z,3372
2018-03-08T14:15:40.255Z,3456
2018-03-08T14:16:54.388Z,3448
2018-03-08T14:17:56.253Z,3440
2018-03-08T14:18:58.134Z,3368
2018-03-08T14:20:00.025Z,3284
2018-03-08T14:21:01.847Z,3312
2018-03-08T14:22:03.661Z,3276
2018-03-08T14:23:05.520Z,3268
2018-03-08T14:24:07.384Z,3240
2018-03-08T14:25:09.264Z,3160
2018-03-08T14:26:23.398Z,3212
2018-03-08T14:27:25.264Z,3220
2018-03-08T14:28:27.143Z,3256
2018-03-08T14:29:29.006Z,3280
2018-03-08T14:30:30.824Z,3456
2018-03-08T14:31:32.631Z,3704
2018-03-08T14:32:34.509Z,4244
2018-03-08T14:33:36.374Z,4508
2018-03-08T14:34:38.253Z,4264
2018-03-08T14:35:52.387Z,3756
2018-03-08T14:36:54.249Z,3472
2018-03-08T14:37:56.117Z,3316
2018-03-08T14:38:57.996Z,3252
2018-03-08T14:39:59.799Z,3204
2018-03-08T14:41:01.606Z,3160
2018-03-08T14:42:03.532Z,3164
2018-03-08T14:43:05.360Z,3112
2018-03-08T14:44:07.241Z,3064
2018-03-08T14:45:21.395Z,3084
2018-03-08T14:46:23.274Z,3292
2018-03-08T14:47:25.136Z,3412
2018-03-08T14:48:27.003Z,3504
2018-03-08T14:49:28.809Z,3480
2018-03-08T14:50:30.607Z,3300
2018-03-08T14:51:32.406Z,3052
2018-03-08T14:52:34.211Z,2964
2018-03-08T14:53:36.085Z,2916
2018-03-08T14:54:50.228Z,3112
2018-03-08T14:55:52.109Z,3364
2018-03-08T14:56:53.989Z,3784
2018-03-08T14:57:55.847Z,4308
2018-03-08T14:58:57.650Z,5172
2018-03-08T14:59:59.465Z,5640
2018-03-08T15:01:01.329Z,5144
2018-03-08T15:02:03.195Z,4416
2018-03-08T15:03:05.079Z,3844
2018-03-08T15:04:19.239Z,3428
2018-03-08T15:05:21.120Z,3196
2018-03-08T15:06:23.017Z,3088
2018-03-08T15:07:24.885Z,3056
2018-03-08T15:08:26.692Z,3068
2018-03-08T15:09:28.492Z,3100
2018-03-08T15:10:30.355Z,3076
2018-03-08T15:11:32.220Z,3056
2018-03-08T15:12:34.106Z,2956
2018-03-08T15:13:48.261Z,2952
2018-03-08T15:14:50.137Z,2928
2018-03-08T15:15:52.000Z,2820
2018-03-08T15:16:53.866Z,2760
2018-03-08T15:17:55.685Z,2800
2018-03-08T15:18:57.491Z,2756
2018-03-08T15:19:59.347Z,2844
2018-03-08T15:21:01.211Z,2952
2018-03-08T15:22:03.093Z,3000
2018-03-08T15:23:17.302Z,3004
2018-03-08T15:24:19.181Z,3016
2018-03-08T15:25:21.041Z,2964
2018-03-08T15:26:22.908Z,2904
2018-03-08T15:27:24.728Z,2836
2018-03-08T15:28:26.552Z,2844
2018-03-08T15:29:28.410Z,2864
2018-03-08T15:30:30.309Z,2888
2018-03-08T15:31:32.173Z,2984
2018-03-08T15:32:46.357Z,3128
2018-03-08T15:33:48.218Z,3136
2018-03-08T15:34:50.096Z,3168
2018-03-08T15:35:51.964Z,3208
2018-03-08T15:36:53.771Z,3084
2018-03-08T15:37:55.595Z,2912
2018-03-08T15:38:57.452Z,2704
2018-03-08T15:39:59.346Z,2568
2018-03-08T15:41:01.217Z,2588
2018-03-08T15:42:15.408Z,2696
2018-03-08T15:43:17.291Z,2752
2018-03-08T15:44:19.173Z,2708
2018-03-08T15:45:21.058Z,2644
2018-03-08T15:46:22.886Z,2564
2018-03-08T15:47:24.722Z,2432
2018-03-08T15:48:26.589Z,2288
2018-03-08T15:49:28.446Z,2216
2018-03-08T15:50:30.325Z,2188
2018-03-08T15:51:44.461Z,2288
2018-03-08T15:52:46.339Z,2404
2018-03-08T15:53:48.206Z,2584
2018-03-08T15:54:50.081Z,2680
2018-03-08T15:55:51.884Z,2668
2018-03-08T15:56:53.692Z,2620
2018-03-08T15:57:55.569Z,2588
2018-03-08T15:58:57.434Z,2640
2018-03-08T15:59:59.296Z,2672
2018-03-08T16:01:13.431Z,2428
2018-03-08T16:02:15.295Z,2124
2018-03-08T16:03:17.180Z,1888
2018-03-08T16:04:19.048Z,1736
2018-03-08T16:05:20.840Z,1692
2018-03-08T16:06:22.642Z,1700
2018-03-08T16:07:24.522Z,1708
2018-03-08T16:08:26.386Z,1728
2018-03-08T16:09:28.269Z,1768
2018-03-08T16:10:42.424Z,1736
2018-03-08T16:11:44.305Z,1660
2018-03-08T16:12:46.183Z,1544
2018-03-08T16:13:48.047Z,1428
2018-03-08T16:14:49.866Z,1364
2018-03-08T16:15:51.671Z,1300
2018-03-08T16:16:53.545Z,1264
2018-03-08T16:17:55.412Z,1236
2018-03-08T16:18:57.296Z,1204
2018-03-08T16:20:11.446Z,1176
2018-03-08T16:21:13.330Z,1156
2018-03-08T16:22:15.219Z,1128
2018-03-08T16:23:17.089Z,1092
2018-03-08T16:24:18.892Z,1056
2018-03-08T16:25:20.718Z,1024
2018-03-08T16:26:22.588Z,984
2018-03-08T16:27:24.474Z,944
2018-03-08T16:28:26.347Z,916
2018-03-08T16:29:40.484Z,880
2018-03-08T16:30:42.359Z,848
2018-03-08T16:31:44.219Z,820
2018-03-08T16:32:46.104Z,788
2018-03-08T16:33:47.919Z,756
2018-03-08T16:34:49.737Z,728
2018-03-08T16:35:51.619Z,692
2018-03-08T16:36:53.456Z,664
2018-03-08T16:37:55.315Z,640
2018-03-08T16:39:09.451Z,600
2018-03-08T16:40:11.329Z,572
2018-03-08T16:41:13.206Z,540
2018-03-08T16:42:15.070Z,508
2018-03-08T16:43:16.869Z,472
2018-03-08T16:44:18.668Z,440
2018-03-08T16:45:20.502Z,404
2018-03-08T16:46:22.361Z,376
2018-03-08T16:47:24.238Z,344
2018-03-08T16:48:38.415Z,308
2018-03-08T16:49:40.303Z,288
2018-03-08T16:50:42.178Z,264
2018-03-08T16:51:44.043Z,240
2018-03-08T16:52:45.863Z,224
2018-03-08T16:53:47.658Z,200
2018-03-08T16:54:49.508Z,184
2018-03-08T16:55:51.370Z,164
2018-03-08T16:56:53.252Z,148
2018-03-08T16:58:07.400Z,128
2018-03-08T16:59:09.285Z,112
2018-03-08T17:00:11.123Z,100
2018-03-08T17:01:13.002Z,88
2018-03-08T17:02:14.793Z,76
2018-03-08T17:03:16.619Z,68
2018-03-08T17:04:18.453Z,56
2018-03-08T17:05:20.327Z,48
2018-03-08T17:06:22.175Z,44
2018-03-08T17:07:36.342Z,32
2018-03-08T17:08:38.183Z,28
2018-03-08T17:09:40.041Z,28
2018-03-08T17:10:41.920Z,20
2018-03-08T17:11:43.715Z,20
2018-03-08T17:12:45.509Z,12
2018-03-08T17:13:47.363Z,12
2018-03-08T17:14:49.218Z,12
2018-03-08T17:15:51.099Z,8
2018-03-08T17:17:05.228Z,8
2018-03-08T17:18:07.163Z,8
2018-03-08T17:19:08.949Z,4
2018-03-08T17:20:10.804Z,4
2018-03-08T17:21:12.605Z,4
2018-03-08T17:22:14.393Z,0
2018-03-08T17:23:16.272Z,4
2018-03-08T17:24:18.154Z,4
2018-03-08T17:25:20.006Z,0
2018-03-08T17:26:34.149Z,0
2018-03-08T17:27:36.007Z,0
2018-03-08T17:28:37.898Z,0
2018-03-08T17:29:39.731Z,0
2018-03-08T17:30:41.527Z,0
2018-03-08T17:31:43.324Z,0
2018-03-08T17:32:45.180Z,0
2018-03-08T17:33:47.062Z,0
2018-03-08T17:34:48.952Z,0
2018-03-08T17:36:03.147Z,0
2018-03-08T17:37:04.953Z,0
2018-03-08T17:38:06.812Z,0
2018-03-08T17:39:08.692Z,0
2018-03-08T17:40:10.509Z,0
2018-03-08T17:41:12.314Z,0
2018-03-08T17:42:14.175Z,0
2018-03-08T17:43:16.046Z,0
2018-03-08T17:44:17.902Z,0
2018-03-08T17:45:32.045Z,0
2018-03-08T17:46:33.905Z,0
2018-03-08T17:47:35.763Z,0
2018-03-08T17:48:37.634Z,0
2018-03-08T17:49:39.435Z,0
2018-03-08T17:50:41.255Z,0
2018-03-08T17:51:43.129Z,0
2018-03-08T17:52:44.981Z,0
2018-03-08T17:53:46.858Z,0
2018-03-08T17:55:01.005Z,0
2018-03-08T17:56:02.872Z,0
2018-03-08T17:57:04.733Z,0
2018-03-08T17:58:06.600Z,0
2018-03-08T17:59:08.403Z,0
2018-03-08T18:00:10.216Z,0
2018-03-08T18:01:12.088Z,0
2018-03-08T18:02:13.939Z,0
2018-03-08T18:03:15.798Z,0
2018-03-08T18:04:29.941Z,0
2018-03-08T18:05:31.800Z,0
2018-03-08T18:06:33.674Z,0
2018-03-08T18:07:35.545Z,0
2018-03-08T18:08:37.345Z,0
2018-03-08T18:09:39.136Z,0
2018-03-08T18:10:40.943Z,0
2018-03-08T18:11:42.738Z,0
2018-03-08T18:12:44.532Z,0
2018-03-08T18:13:58.661Z,0
2018-03-08T18:15:00.531Z,0
2018-03-08T18:16:02.393Z,0
2018-03-08T18:17:04.263Z,0
2018-03-08T18:18:06.064Z,0
2018-03-08T18:19:07.873Z,0
2018-03-08T18:20:09.772Z,0
2018-03-08T18:21:11.600Z,0
2018-03-08T18:22:13.451Z,0
2018-03-08T18:23:27.583Z,0
2018-03-08T18:24:29.439Z,0
2018-03-08T18:25:31.292Z,0
2018-03-08T18:26:33.145Z,0
2018-03-08T18:27:34.948Z,0
2018-03-08T18:28:36.757Z,0
2018-03-08T18:29:38.611Z,0
2018-03-08T18:30:40.487Z,0
2018-03-08T18:31:42.361Z,0
2018-03-08T18:32:56.487Z,0
2018-03-08T18:33:58.350Z,0
2018-03-08T18:35:00.220Z,0
2018-03-08T18:36:02.091Z,0
2018-03-08T18:37:03.904Z,0
2018-03-08T18:38:05.702Z,0
2018-03-08T18:39:07.554Z,0
2018-03-08T18:40:09.415Z,0
2018-03-08T18:41:11.289Z,0
2018-03-08T18:42:25.420Z,0
2018-03-08T18:43:27.293Z,0
2018-03-08T18:44:29.170Z,0
2018-03-08T18:45:31.044Z,0
2018-03-08T18:46:32.842Z,0
2018-03-08T18:47:34.648Z,0
2018-03-08T18:48:36.501Z,0
2018-03-08T18:49:38.356Z,0
2018-03-08T18:50:40.233Z,0
2018-03-08T18:51:54.404Z,0
2018-03-08T18:52:56.266Z,0
2018-03-08T18:53:58.142Z,0
2018-03-08T18:55:00.016Z,0
2018-03-08T18:56:01.893Z,0
2018-03-08T18:57:03.687Z,0
2018-03-08T18:58:05.499Z,0
2018-03-08T18:59:07.378Z,0
2018-03-08T19:00:09.279Z,0
2018-03-08T19:01:23.490Z,0
2018-03-08T19:02:25.347Z,0
2018-03-08T19:03:27.205Z,0
2018-03-08T19:04:29.077Z,0
2018-03-08T19:05:30.873Z,0
2018-03-08T19:06:32.664Z,0
2018-03-08T19:07:34.524Z,0
2018-03-08T19:08:36.395Z,0
2018-03-08T19:09:38.277Z,0
2018-03-08T19:10:52.417Z,0
2018-03-08T19:11:54.273Z,0
2018-03-08T19:12:56.135Z,0
2018-03-08T19:13:58.011Z,0
2018-03-08T19:14:59.820Z,0
2018-03-08T19:16:01.622Z,0
2018-03-08T19:17:03.490Z,0
2018-03-08T19:18:05.342Z,0
2018-03-08T19:19:07.205Z,0
2018-03-08T19:20:21.381Z,0
2018-03-08T19:21:23.232Z,0
2018-03-08T19:22:25.155Z,0
2018-03-08T19:23:27.018Z,0
2018-03-08T19:24:28.822Z,0
2018-03-08T19:25:30.635Z,0
2018-03-08T19:26:32.508Z,0
2018-03-08T19:27:34.385Z,0
2018-03-08T19:28:36.263Z,0
2018-03-08T19:29:50.404Z,0
2018-03-08T19:30:52.255Z,0
2018-03-08T19:31:54.114Z,0
2018-03-08T19:32:55.989Z,0
2018-03-08T19:33:57.813Z,0
2018-03-08T19:34:59.629Z,0
2018-03-08T19:36:01.496Z,0
2018-03-08T19:37:03.363Z,0
2018-03-08T19:38:05.210Z,0
2018-03-08T19:39:19.340Z,0
2018-03-08T19:40:21.216Z,0
2018-03-08T19:41:23.062Z,0
2018-03-08T19:42:24.917Z,0
2018-03-08T19:43:26.739Z,0
2018-03-08T19:44:28.531Z,0
2018-03-08T19:45:30.411Z,0
2018-03-08T19:46:32.263Z,0
2018-03-08T19:47:34.120Z,0
2018-03-08T19:48:48.300Z,0
2018-03-08T19:49:50.150Z,0
2018-03-08T19:50:52.007Z,0
2018-03-08T19:51:53.877Z,0
2018-03-08T19:52:55.687Z,0
2018-03-08T19:53:57.468Z,0
2018-03-08T19:54:59.327Z,0
2018-03-08T19:56:01.180Z,0
2018-03-08T19:57:03.035Z,0
2018-03-08T19:58:17.158Z,0
2018-03-08T19:59:19.020Z,0
2018-03-08T20:00:20.889Z,0
2018-03-08T20:01:22.743Z,0
2018-03-08T20:02:24.538Z,0
2018-03-08T20:03:26.330Z,0
2018-03-08T20:04:28.218Z,0
2018-03-08T20:05:30.070Z,0
2018-03-08T20:06:31.927Z,0
2018-03-08T20:07:46.053Z,0
2018-03-08T20:08:47.940Z,0
2018-03-08T20:09:49.797Z,0
2018-03-08T20:10:51.657Z,0
2018-03-08T20:11:53.483Z,0
2018-03-08T20:12:55.318Z,0
2018-03-08T20:13:57.203Z,0
2018-03-08T20:14:59.079Z,0
2018-03-08T20:16:00.952Z,0
2018-03-08T20:17:15.094Z,0
2018-03-08T20:18:16.958Z,0
2018-03-08T20:19:18.823Z,0
2018-03-08T20:20:20.677Z,0
2018-03-08T20:21:22.499Z,0
2018-03-08T20:22:24.330Z,0
2018-03-08T20:23:26.200Z,0
2018-03-08T20:24:28.053Z,0
2018-03-08T20:25:29.912Z,0
2018-03-08T20:26:44.039Z,0
2018-03-08T20:27:45.896Z,0
2018-03-08T20:28:47.771Z,0
2018-03-08T20:29:49.643Z,0
2018-03-08T20:30:51.463Z,0
2018-03-08T20:31:53.291Z,0
2018-03-08T20:32:55.152Z,0
2018-03-08T20:33:57.026Z,0
2018-03-08T20:34:58.881Z,0
2018-03-08T20:36:13.070Z,0
2018-03-08T20:37:14.928Z,0
2018-03-08T20:38:16.788Z,0
2018-03-08T20:39:18.658Z,0
2018-03-08T20:40:20.461Z,0
2018-03-08T20:41:22.273Z,0
2018-03-08T20:42:24.140Z,0
2018-03-08T20:43:26.012Z,0
2018-03-08T20:44:27.862Z,0
2018-03-08T20:45:41.988Z,0
2018-03-08T20:46:43.861Z,0
2018-03-08T20:47:45.715Z,0
2018-03-08T20:48:47.583Z,0
2018-03-08T20:49:49.388Z,0
2018-03-08T20:50:51.195Z,0
2018-03-08T20:51:53.052Z,0
2018-03-08T20:52:54.905Z,0
2018-03-08T20:53:56.771Z,0
2018-03-08T20:55:10.910Z,0
2018-03-08T20:56:12.768Z,0
2018-03-08T20:57:14.623Z,0
2018-03-08T20:58:16.485Z,0
2018-03-08T20:59:18.276Z,0
2018-03-08T21:00:20.065Z,0
2018-03-08T21:01:21.921Z,0
2018-03-08T21:02:23.782Z,0
2018-03-08T21:03:25.636Z,0
2018-03-08T21:04:39.781Z,0
2018-03-08T21:05:41.634Z,0
2018-03-08T21:06:43.538Z,0
2018-03-08T21:07:45.363Z,0
2018-03-08T21:08:47.176Z,0
2018-03-08T21:09:48.961Z,0
2018-03-08T21:10:50.821Z,0
2018-03-08T21:11:52.693Z,0
2018-03-08T21:12:54.545Z,0
2018-03-08T21:14:08.675Z,0
2018-03-08T21:15:10.534Z,0
